Time;durP1;ratioP1;P1;durP2;ratioP2;P2;SDS_P1;SDS_P2;PMS_P1;PMS_P2;Temp;Humidity;BMP_temperature;BMP_pressure;BME280_temperature;BME280_humidity;BME280_pressure;Samples;Min_cycle;Max_cycle;Signal;HPM_P1;HPM_P2
2021/10/11 00:01:22;;;;;;;;;;;1.70;99.90;;;;;;8394375;28;19920;-65
2021/10/11 00:05:22;;;;;;;;;;;1.40;99.90;;;;;;8394282;28;20286;-65
2021/10/11 00:09:23;;;;;;;;;;;1.40;99.90;;;;;;8393099;28;20363;-65
2021/10/11 00:13:23;;;;;;;;;;;1.60;99.90;;;;;;8393079;28;19958;-65
2021/10/11 00:17:24;;;;;;;;;;;1.70;99.90;;;;;;8393486;28;19913;-65
2021/10/11 00:21:24;;;;;;;;;;;1.30;99.90;;;;;;8392896;28;19977;-65
2021/10/11 00:25:25;;;;;;;;;;;1.40;99.90;;;;;;8392485;28;19908;-65
2021/10/11 00:29:25;;;;;;;;;;;1.20;99.90;;;;;;8393813;28;19908;-65
2021/10/11 00:33:26;;;;;;;;;;;1.20;99.90;;;;;;8393967;28;19922;-65
2021/10/11 00:37:26;;;;;;;;;;;1.20;99.90;;;;;;8393537;28;19912;-65
2021/10/11 00:41:31;;;;;;;;;;;1.20;99.90;;;;;;8393884;28;19909;-65
2021/10/11 00:45:31;;;;;;;;;;;1.20;99.90;;;;;;8391885;28;19909;-65
2021/10/11 00:49:32;;;;;;;;;;;1.20;99.90;;;;;;8393324;28;19913;-65
2021/10/11 00:53:32;;;;;;;;;;;1.30;99.90;;;;;;8393227;28;19908;-65
2021/10/11 00:57:33;;;;;;;;;;;1.20;99.90;;;;;;8391407;28;20090;-65
2021/10/11 01:01:33;;;;;;;;;;;1.00;99.90;;;;;;8393081;28;19916;-65
2021/10/11 01:05:34;;;;;;;;;;;1.00;99.90;;;;;;8391652;28;19963;-65
2021/10/11 01:09:34;;;;;;;;;;;1.10;99.90;;;;;;8392988;28;20011;-65
2021/10/11 01:13:35;;;;;;;;;;;1.10;99.90;;;;;;8392569;28;20474;-64
2021/10/11 01:17:35;;;;;;;;;;;1.10;99.90;;;;;;8391669;28;19913;-65
2021/10/11 01:21:36;;;;;;;;;;;1.00;99.90;;;;;;8392529;28;20329;-64
2021/10/11 01:25:36;;;;;;;;;;;1.00;99.90;;;;;;8392135;28;20302;-64
2021/10/11 01:29:37;;;;;;;;;;;0.90;99.90;;;;;;8392264;28;19909;-65
2021/10/11 01:33:37;;;;;;;;;;;0.90;99.90;;;;;;8392123;28;20421;-65
2021/10/11 01:37:38;;;;;;;;;;;1.00;99.90;;;;;;8391747;28;20267;-65
2021/10/11 01:41:38;;;;;;;;;;;0.60;99.90;;;;;;8392188;28;20370;-65
2021/10/11 01:45:40;;;;;;;;;;;0.40;99.90;;;;;;8391607;28;20035;-65
2021/10/11 01:49:42;;;;;;;;;;;0.30;99.90;;;;;;8391862;28;19909;-65
2021/10/11 01:53:43;;;;;;;;;;;0.60;99.90;;;;;;8390579;28;19908;-65
2021/10/11 01:57:43;;;;;;;;;;;0.70;99.90;;;;;;8390068;28;20386;-65
2021/10/11 02:01:44;;;;;;;;;;;0.60;99.90;;;;;;8391333;28;19909;-65
2021/10/11 02:05:44;;;;;;;;;;;0.80;99.90;;;;;;8390093;28;19923;-65
2021/10/11 02:09:45;;;;;;;;;;;0.70;99.90;;;;;;8391706;28;20003;-65
2021/10/11 02:13:45;;;;;;;;;;;0.50;99.90;;;;;;8391359;28;19965;-65
2021/10/11 02:17:46;;;;;;;;;;;0.80;99.90;;;;;;8390997;28;19927;-65
2021/10/11 02:21:46;;;;;;;;;;;0.90;99.90;;;;;;8391529;28;19923;-65
2021/10/11 02:25:47;;;;;;;;;;;0.70;99.90;;;;;;8389722;28;19959;-65
2021/10/11 02:29:47;;;;;;;;;;;0.70;99.90;;;;;;8395896;28;19909;-65
2021/10/11 02:33:49;;;;;;;;;;;0.60;99.90;;;;;;8396943;28;19909;-65
2021/10/11 02:37:49;;;;;;;;;;;0.80;99.90;;;;;;8395614;28;19962;-64
2021/10/11 02:41:50;;;;;;;;;;;0.80;99.90;;;;;;8397215;28;19908;-65
2021/10/11 02:45:50;;;;;;;;;;;0.70;99.90;;;;;;8396670;28;19913;-65
2021/10/11 02:49:51;;;;;;;;;;;0.60;99.90;;;;;;8395575;28;19935;-65
2021/10/11 02:53:51;;;;;;;;;;;0.60;99.90;;;;;;8395451;28;20325;-65
2021/10/11 02:57:52;;;;;;;;;;;0.60;99.90;;;;;;8396200;28;19916;-65
2021/10/11 03:01:52;;;;;;;;;;;0.60;99.90;;;;;;8396190;28;19908;-65
2021/10/11 03:05:52;;;;;;;;;;;0.60;99.90;;;;;;8396220;28;19995;-65
2021/10/11 03:09:53;;;;;;;;;;;0.60;99.90;;;;;;8395108;28;19919;-65
2021/10/11 03:13:53;;;;;;;;;;;0.50;99.90;;;;;;8394933;28;19954;-65
2021/10/11 03:17:54;;;;;;;;;;;0.40;99.90;;;;;;8394113;28;20061;-65
2021/10/11 03:21:54;;;;;;;;;;;0.30;99.90;;;;;;8395833;28;19920;-65
2021/10/11 03:25:55;;;;;;;;;;;0.30;99.90;;;;;;8388075;28;20382;-65
2021/10/11 03:29:55;;;;;;;;;;;0.30;99.90;;;;;;8386215;28;19991;-65
2021/10/11 03:33:56;;;;;;;;;;;0.20;99.90;;;;;;8372678;28;19913;-65
2021/10/11 03:37:56;;;;;;;;;;;0.30;99.90;;;;;;8371415;28;19916;-65
2021/10/11 03:41:57;;;;;;;;;;;0.30;99.90;;;;;;8373635;28;19948;-65
2021/10/11 03:45:58;;;;;;;;;;;0.30;99.90;;;;;;8374431;28;19966;-65
2021/10/11 03:49:58;;;;;;;;;;;0.30;99.90;;;;;;8377852;28;19912;-65
2021/10/11 03:53:59;;;;;;;;;;;0.20;99.90;;;;;;8373025;28;19913;-65
2021/10/11 03:58:00;;;;;;;;;;;0.30;99.90;;;;;;8390456;28;19916;-65
2021/10/11 04:02:01;;;;;;;;;;;0.30;99.90;;;;;;8381958;28;19916;-65
2021/10/11 04:06:02;;;;;;;;;;;0.20;99.90;;;;;;8386704;28;20003;-65
2021/10/11 04:10:05;;;;;;;;;;;0.30;99.90;;;;;;8385688;28;19958;-65
2021/10/11 04:14:05;;;;;;;;;;;0.20;99.90;;;;;;8394413;28;19915;-65
2021/10/11 04:18:05;;;;;;;;;;;0.10;99.90;;;;;;8394300;28;20446;-65
2021/10/11 04:22:06;;;;;;;;;;;0.10;99.90;;;;;;8393884;28;20383;-65
2021/10/11 04:26:07;;;;;;;;;;;0.00;99.90;;;;;;8393699;28;19908;-65
2021/10/11 04:30:08;;;;;;;;;;;0.20;99.90;;;;;;8394002;28;19908;-65
2021/10/11 04:34:08;;;;;;;;;;;0.20;99.90;;;;;;8393368;28;20362;-65
2021/10/11 04:38:09;;;;;;;;;;;0.10;99.90;;;;;;8391201;28;19966;-65
2021/10/11 04:42:09;;;;;;;;;;;0.20;99.90;;;;;;8393359;28;20382;-65
2021/10/11 04:46:10;;;;;;;;;;;0.00;99.90;;;;;;8393007;28;19967;-65
2021/10/11 04:50:10;;;;;;;;;;;0.00;99.90;;;;;;8366450;28;20373;-65
2021/10/11 04:54:13;;;;;;;;;;;0.10;99.90;;;;;;8358922;28;19970;-65
2021/10/11 04:58:14;;;;;;;;;;;0.00;99.90;;;;;;8358224;28;19967;-65
2021/10/11 05:02:14;;;;;;;;;;;0.10;99.90;;;;;;8358112;28;19970;-65
2021/10/11 05:06:15;;;;;;;;;;;0.00;99.90;;;;;;8359565;28;19909;-65
2021/10/11 05:10:15;;;;;;;;;;;-0.30;99.90;;;;;;8376093;28;19920;-65
2021/10/11 05:14:16;;;;;;;;;;;0.00;99.90;;;;;;8386536;28;19912;-65
2021/10/11 05:18:16;;;;;;;;;;;-0.20;99.90;;;;;;8371819;28;19924;-65
2021/10/11 05:22:16;;;;;;;;;;;-0.10;99.90;;;;;;8377353;28;19916;-66
2021/10/11 05:26:17;;;;;;;;;;;0.10;99.90;;;;;;8373183;28;19924;-65
2021/10/11 05:30:17;;;;;;;;;;;0.20;99.90;;;;;;8373516;28;19915;-65
2021/10/11 05:34:20;;;;;;;;;;;0.20;99.90;;;;;;8377595;28;20119;-65
2021/10/11 05:38:21;;;;;;;;;;;0.20;99.90;;;;;;8360868;28;19916;-65
2021/10/11 05:42:21;;;;;;;;;;;0.10;99.90;;;;;;8358278;28;19917;-65
2021/10/11 05:46:22;;;;;;;;;;;0.20;99.90;;;;;;8358452;28;19917;-65
2021/10/11 05:50:22;;;;;;;;;;;0.30;99.90;;;;;;8360968;28;19924;-67
2021/10/11 05:54:23;;;;;;;;;;;0.30;99.90;;;;;;8390755;28;19912;-66
2021/10/11 05:58:23;;;;;;;;;;;0.40;99.90;;;;;;8378546;28;19916;-65
2021/10/11 06:02:24;;;;;;;;;;;0.40;99.90;;;;;;8366932;28;20015;-65
2021/10/11 06:06:24;;;;;;;;;;;0.40;99.90;;;;;;8383635;28;19912;-65
2021/10/11 06:10:25;;;;;;;;;;;0.60;99.90;;;;;;8410716;28;19999;-66
2021/10/11 06:14:25;;;;;;;;;;;0.80;99.90;;;;;;8410401;28;20387;-66
2021/10/11 06:18:26;;;;;;;;;;;0.90;99.90;;;;;;8368829;28;19924;-66
2021/10/11 06:22:26;;;;;;;;;;;1.20;99.90;;;;;;8396343;28;20358;-66
2021/10/11 06:26:27;;;;;;;;;;;1.40;99.90;;;;;;8386733;28;19919;-66
2021/10/11 06:30:27;;;;;;;;;;;1.40;99.90;;;;;;8378194;28;19913;-66
2021/10/11 06:34:28;;;;;;;;;;;1.60;99.90;;;;;;8379673;28;19915;-66
2021/10/11 06:38:28;;;;;;;;;;;1.80;99.90;;;;;;8366959;28;20003;-66
2021/10/11 06:42:29;;;;;;;;;;;1.90;99.90;;;;;;8362872;28;19916;-66
2021/10/11 06:46:29;;;;;;;;;;;2.00;99.90;;;;;;8362790;28;20398;-66
2021/10/11 06:50:30;;;;;;;;;;;2.10;99.90;;;;;;8375496;28;19918;-66
2021/10/11 06:54:31;;;;;;;;;;;2.10;99.90;;;;;;8394084;28;19919;-65
2021/10/11 06:58:31;;;;;;;;;;;2.40;99.90;;;;;;8392930;28;20301;-66
2021/10/11 07:02:31;;;;;;;;;;;2.50;99.90;;;;;;8374317;28;19923;-66
2021/10/11 07:06:32;;;;;;;;;;;2.60;99.90;;;;;;8392366;28;19923;-66
2021/10/11 07:10:32;;;;;;;;;;;2.80;99.90;;;;;;8395768;28;19909;-66
2021/10/11 07:14:33;;;;;;;;;;;3.10;99.90;;;;;;8394667;28;19931;-66
2021/10/11 07:18:34;;;;;;;;;;;3.30;99.90;;;;;;8395863;28;20374;-66
2021/10/11 07:22:36;;;;;;;;;;;3.50;99.90;;;;;;8396236;28;20015;-66
2021/10/11 07:26:36;;;;;;;;;;;3.70;99.90;;;;;;8394737;28;19994;-66
2021/10/11 07:30:37;;;;;;;;;;;3.80;99.90;;;;;;8372951;28;19913;-66
2021/10/11 07:34:37;;;;;;;;;;;3.90;99.90;;;;;;8360843;28;20323;-66
2021/10/11 07:38:38;;;;;;;;;;;4.30;99.90;;;;;;8366507;28;19980;-65
2021/10/11 07:42:38;;;;;;;;;;;4.60;99.90;;;;;;8365652;28;19998;-65
2021/10/11 07:46:39;;;;;;;;;;;4.80;99.90;;;;;;8364414;28;19912;-65
2021/10/11 07:50:39;;;;;;;;;;;5.00;99.90;;;;;;8376258;28;19947;-65
2021/10/11 07:54:40;;;;;;;;;;;4.50;99.90;;;;;;8391343;28;20023;-65
2021/10/11 07:58:40;;;;;;;;;;;4.40;99.90;;;;;;8394331;28;19963;-65
2021/10/11 08:02:41;;;;;;;;;;;4.40;99.90;;;;;;8394480;28;19999;-65
2021/10/11 08:06:41;;;;;;;;;;;4.80;99.90;;;;;;8394182;28;19909;-65
2021/10/11 08:10:44;;;;;;;;;;;5.10;99.90;;;;;;8394391;28;19912;-65
2021/10/11 08:14:44;;;;;;;;;;;5.40;99.90;;;;;;8393241;28;20501;-65
2021/10/11 08:18:45;;;;;;;;;;;5.70;99.90;;;;;;8389115;28;19923;-65
2021/10/11 08:22:46;;;;;;;;;;;5.80;99.90;;;;;;8393634;28;20657;-65
2021/10/11 08:26:46;;;;;;;;;;;5.80;99.90;;;;;;8392518;28;19957;-65
2021/10/11 08:30:46;;;;;;;;;;;5.90;99.90;;;;;;8393826;28;19915;-65
2021/10/11 08:34:47;;;;;;;;;;;5.80;99.90;;;;;;8391231;28;20026;-65
2021/10/11 08:38:48;;;;;;;;;;;5.90;99.90;;;;;;8359832;28;19913;-65
2021/10/11 08:42:50;;;;;;;;;;;6.30;99.90;;;;;;8358843;28;19909;-65
2021/10/11 08:46:50;;;;;;;;;;;6.70;99.90;;;;;;8358414;28;19909;-65
2021/10/11 08:50:50;;;;;;;;;;;7.30;99.90;;;;;;8359995;28;20406;-65
2021/10/11 08:54:51;;;;;;;;;;;7.80;99.90;;;;;;8359549;28;19908;-65
2021/10/11 08:58:52;;;;;;;;;;;8.00;99.90;;;;;;8359814;28;20440;-66
2021/10/11 09:02:56;;;;;;;;;;;8.00;99.90;;;;;;8359621;28;19951;-65
2021/10/11 09:07:06;;;;;;;;;;;8.10;99.90;;;;;;8359367;28;19915;-66
2021/10/11 09:11:07;;;;;;;;;;;8.10;99.90;;;;;;8358997;28;19919;-66
2021/10/11 09:15:09;;;;;;;;;;;8.60;99.90;;;;;;8358079;28;19944;-66
2021/10/11 09:19:11;;;;;;;;;;;8.60;99.90;;;;;;8370179;28;19916;-65
2021/10/11 09:23:18;;;;;;;;;;;8.20;99.90;;;;;;8391529;28;20310;-66
2021/10/11 09:27:18;;;;;;;;;;;8.20;99.90;;;;;;8391500;28;20370;-66
2021/10/11 09:31:19;;;;;;;;;;;8.20;99.90;;;;;;8390533;28;19913;-65
2021/10/11 09:35:21;;;;;;;;;;;8.20;99.90;;;;;;8390887;28;20003;-66
2021/10/11 09:39:26;;;;;;;;;;;8.30;99.90;;;;;;8390656;28;20416;-65
2021/10/11 09:43:28;;;;;;;;;;;8.70;99.90;;;;;;8392043;28;20390;-65
2021/10/11 09:47:37;;;;;;;;;;;8.90;99.90;;;;;;8391557;28;19915;-66
2021/10/11 09:51:38;;;;;;;;;;;8.90;99.90;;;;;;8391905;28;19913;-66
2021/10/11 09:55:41;;;;;;;;;;;9.30;99.90;;;;;;8375625;28;20003;-66
2021/10/11 09:59:44;;;;;;;;;;;9.70;99.90;;;;;;8358453;28;19913;-66
2021/10/11 10:03:44;;;;;;;;;;;10.10;99.90;;;;;;8356744;28;19908;-66
2021/10/11 10:07:51;;;;;;;;;;;10.20;99.90;;;;;;8357820;28;19961;-66
2021/10/11 10:11:52;;;;;;;;;;;10.70;99.90;;;;;;8358758;28;19909;-66
2021/10/11 10:15:55;;;;;;;;;;;11.10;99.90;;;;;;8368426;28;19968;-66
2021/10/11 10:20:03;;;;;;;;;;;11.00;99.90;;;;;;8371554;28;19909;-66
2021/10/11 10:24:03;;;;;;;;;;;11.30;99.90;;;;;;8389051;28;19917;-66
2021/10/11 10:28:12;;;;;;;;;;;11.40;99.90;;;;;;8390016;28;19919;-66
2021/10/11 10:32:13;;;;;;;;;;;11.60;99.90;;;;;;8390360;28;20307;-66
2021/10/11 10:36:32;;;;;;;;;;;12.40;99.90;;;;;;8391385;28;20352;-66
2021/10/11 10:40:33;;;;;;;;;;;14.40;99.90;;;;;;8391877;28;20106;-67
2021/10/11 10:44:42;;;;;;;;;;;17.70;99.90;;;;;;8391351;28;19916;-67
2021/10/11 10:48:50;;;;;;;;;;;20.20;99.20;;;;;;8393082;28;19922;-67
2021/10/11 10:52:57;;;;;;;;;;;20.40;94.90;;;;;;8397352;28;19954;-67
2021/10/11 10:56:58;;;;;;;;;;;20.20;91.80;;;;;;8395249;28;19966;-67
2021/10/11 11:00:59;;;;;;;;;;;20.30;89.30;;;;;;8394596;28;19916;-67
2021/10/11 11:05:01;;;;;;;;;;;21.30;84.10;;;;;;8389695;28;19936;-67
2021/10/11 11:09:01;;;;;;;;;;;22.00;77.90;;;;;;8394935;28;19958;-67
2021/10/11 11:13:06;;;;;;;;;;;23.40;73.90;;;;;;8365237;28;19978;-66
2021/10/11 11:17:13;;;;;;;;;;;22.50;70.60;;;;;;8362806;28;19988;-67
2021/10/11 11:21:13;;;;;;;;;;;22.20;71.70;;;;;;8363079;28;19917;-67
2021/10/11 11:25:14;;;;;;;;;;;23.20;64.70;;;;;;8361284;28;20379;-66
2021/10/11 11:29:15;;;;;;;;;;;21.50;67.30;;;;;;8362666;28;20435;-67
2021/10/11 11:33:16;;;;;;;;;;;22.40;67.80;;;;;;8362555;28;19913;-66
2021/10/11 11:37:17;;;;;;;;;;;21.50;67.80;;;;;;8361911;28;19913;-66
2021/10/11 11:41:17;;;;;;;;;;;21.00;70.20;;;;;;8362423;28;20391;-66
2021/10/11 11:45:19;;;;;;;;;;;22.30;67.70;;;;;;8361773;28;19963;-66
2021/10/11 11:49:26;;;;;;;;;;;22.30;63.50;;;;;;8380110;28;20420;-66
2021/10/11 11:53:28;;;;;;;;;;;22.90;64.60;;;;;;8388788;28;19913;-67
2021/10/11 11:57:39;;;;;;;;;;;24.40;56.00;;;;;;8393126;28;19920;-66
2021/10/11 12:01:39;;;;;;;;;;;24.00;54.50;;;;;;8393997;28;19908;-66
2021/10/11 12:05:41;;;;;;;;;;;23.00;57.40;;;;;;8393976;28;20371;-67
2021/10/11 12:09:43;;;;;;;;;;;24.50;53.40;;;;;;8394136;28;19909;-66
2021/10/11 12:13:44;;;;;;;;;;;26.10;49.90;;;;;;8394285;28;19916;-66
2021/10/11 12:17:44;;;;;;;;;;;25.70;48.30;;;;;;8392494;28;19955;-66
2021/10/11 12:21:50;;;;;;;;;;;23.80;51.40;;;;;;8394129;28;19916;-66
2021/10/11 12:25:51;;;;;;;;;;;24.30;51.30;;;;;;8390830;28;19916;-67
2021/10/11 12:29:54;;;;;;;;;;;26.10;45.70;;;;;;8389381;28;20410;-67
2021/10/11 12:34:02;;;;;;;;;;;26.20;43.30;;;;;;8388437;28;19913;-67
2021/10/11 12:38:06;;;;;;;;;;;26.90;43.30;;;;;;8392969;28;19920;-67
2021/10/11 12:42:08;;;;;;;;;;;27.20;41.20;;;;;;8393604;28;19935;-67
2021/10/11 12:46:10;;;;;;;;;;;27.90;38.40;;;;;;8391866;28;19930;-67
2021/10/11 12:50:12;;;;;;;;;;;28.90;37.90;;;;;;8392811;28;19909;-66
2021/10/11 12:54:15;;;;;;;;;;;29.40;37.00;;;;;;8381914;28;20068;-67
2021/10/11 12:58:16;;;;;;;;;;;28.60;36.60;;;;;;8359228;28;19970;-67
2021/10/11 13:02:16;;;;;;;;;;;30.00;34.70;;;;;;8360145;28;19912;-67
2021/10/11 13:06:23;;;;;;;;;;;31.30;34.30;;;;;;8359013;28;19912;-67
2021/10/11 13:10:24;;;;;;;;;;;32.20;32.90;;;;;;8359261;28;19909;-67
2021/10/11 13:14:24;;;;;;;;;;;30.60;35.40;;;;;;8360042;28;19916;-67
2021/10/11 13:18:25;;;;;;;;;;;31.40;34.30;;;;;;8383393;28;20383;-67
2021/10/11 13:22:25;;;;;;;;;;;31.40;31.90;;;;;;8389577;28;20410;-67
2021/10/11 13:26:26;;;;;;;;;;;31.20;31.40;;;;;;8380695;28;19912;-67
2021/10/11 13:35:29;;;;;;;;;;;29.30;33.20;;;;;;8363533;28;19966;-67
2021/10/11 14:27:35;;;;;;;;;;;18.20;56.80;;;;;;8380775;28;19928;-66
2021/10/11 16:05:56;;;;;;;;;;;12.90;99.90;;;;;;8371624;28;19995;-66
2021/10/11 16:09:56;;;;;;;;;;;12.60;99.90;;;;;;8378027;28;19912;-66
2021/10/11 16:13:57;;;;;;;;;;;12.30;99.90;;;;;;8361267;28;19913;-66
2021/10/11 16:17:57;;;;;;;;;;;12.10;99.90;;;;;;8371454;28;19923;-66
2021/10/11 16:21:58;;;;;;;;;;;11.80;99.90;;;;;;8393985;28;19916;-66
2021/10/11 16:25:59;;;;;;;;;;;11.70;99.90;;;;;;8371276;28;20035;-66
2021/10/11 16:29:59;;;;;;;;;;;11.50;99.90;;;;;;8369193;28;20001;-66
2021/10/11 16:34:00;;;;;;;;;;;11.30;99.90;;;;;;8374375;28;19919;-66
2021/10/11 16:38:00;;;;;;;;;;;11.30;99.90;;;;;;8373059;28;19924;-65
2021/10/11 16:42:02;;;;;;;;;;;11.20;99.90;;;;;;8375195;28;19913;-65
2021/10/11 16:46:03;;;;;;;;;;;11.10;99.90;;;;;;8373726;28;19920;-65
2021/10/11 16:50:04;;;;;;;;;;;11.00;99.90;;;;;;8372788;28;20367;-65
2021/10/11 16:58:13;;;;;;;;;;;10.70;99.90;;;;;;8392326;28;19920;-65
2021/10/11 17:02:13;;;;;;;;;;;10.60;99.90;;;;;;8390558;28;19917;-65
2021/10/11 17:06:14;;;;;;;;;;;10.40;99.90;;;;;;8373104;28;19998;-64
2021/10/11 17:10:14;;;;;;;;;;;10.50;99.90;;;;;;8378645;28;19920;-65
2021/10/11 17:14:15;;;;;;;;;;;10.70;99.90;;;;;;8373622;28;19954;-65
2021/10/11 17:18:16;;;;;;;;;;;10.50;99.90;;;;;;8375544;28;19976;-66
2021/10/11 17:22:16;;;;;;;;;;;10.40;99.90;;;;;;8377528;28;20459;-66
2021/10/11 17:26:17;;;;;;;;;;;10.20;99.90;;;;;;8354299;28;19909;-65
2021/10/11 17:30:17;;;;;;;;;;;10.20;99.90;;;;;;8362904;28;20018;-66
2021/10/11 17:34:18;;;;;;;;;;;10.20;99.90;;;;;;8366879;28;19952;-65
2021/10/11 17:38:18;;;;;;;;;;;10.10;99.90;;;;;;8370623;28;20374;-66
2021/10/11 17:42:19;;;;;;;;;;;9.90;99.90;;;;;;8372750;28;19971;-65
2021/10/11 17:46:19;;;;;;;;;;;9.70;99.90;;;;;;8374668;28;19916;-65
2021/10/11 17:50:20;;;;;;;;;;;9.70;99.90;;;;;;8367069;28;19959;-65
2021/10/11 17:54:20;;;;;;;;;;;9.60;99.90;;;;;;8354109;28;20458;-65
2021/10/11 17:58:21;;;;;;;;;;;9.30;99.90;;;;;;8357050;28;19985;-66
2021/10/11 18:02:24;;;;;;;;;;;9.20;99.90;;;;;;8357826;28;19966;-66
2021/10/11 18:06:24;;;;;;;;;;;9.30;99.90;;;;;;8374426;28;19912;-66
2021/10/11 18:10:25;;;;;;;;;;;9.40;99.90;;;;;;8371921;28;19921;-65
2021/10/11 18:14:25;;;;;;;;;;;9.30;99.90;;;;;;8367710;28;20611;-65
2021/10/11 18:18:26;;;;;;;;;;;9.10;99.90;;;;;;8361628;28;19917;-66
2021/10/11 18:22:26;;;;;;;;;;;9.00;99.90;;;;;;8365870;28;19927;-66
2021/10/11 18:26:27;;;;;;;;;;;9.00;99.90;;;;;;8377340;28;19916;-66
2021/10/11 18:30:28;;;;;;;;;;;8.90;99.90;;;;;;8360660;28;19967;-66
2021/10/11 18:34:28;;;;;;;;;;;8.90;99.90;;;;;;8381413;28;19916;-66
2021/10/11 18:38:29;;;;;;;;;;;8.90;99.90;;;;;;8369203;28;19931;-65
2021/10/11 18:42:29;;;;;;;;;;;9.20;99.90;;;;;;8355663;28;19935;-66
2021/10/11 18:46:31;;;;;;;;;;;9.10;99.90;;;;;;8371193;28;20414;-66
2021/10/11 18:50:32;;;;;;;;;;;8.90;99.90;;;;;;8363297;28;20003;-66
2021/10/11 18:54:33;;;;;;;;;;;9.00;99.90;;;;;;8358408;28;20299;-66
2021/10/11 18:58:33;;;;;;;;;;;9.00;99.90;;;;;;8357671;28;19928;-66
2021/10/11 19:02:34;;;;;;;;;;;8.90;99.90;;;;;;8371596;28;19991;-66
2021/10/11 19:06:34;;;;;;;;;;;8.80;99.90;;;;;;8358451;28;20015;-66
2021/10/11 19:10:35;;;;;;;;;;;8.80;99.90;;;;;;8372889;28;20271;-66
2021/10/11 19:14:35;;;;;;;;;;;9.00;99.90;;;;;;8364774;28;19916;-66
2021/10/11 19:18:36;;;;;;;;;;;8.80;99.90;;;;;;8361175;28;20023;-65
2021/10/11 19:22:37;;;;;;;;;;;9.10;99.90;;;;;;8366054;28;20055;-66
2021/10/11 19:26:38;;;;;;;;;;;9.10;99.90;;;;;;8359506;28;19919;-66
2021/10/11 19:30:41;;;;;;;;;;;9.00;99.90;;;;;;8356060;28;20367;-65
2021/10/11 19:34:42;;;;;;;;;;;9.00;99.90;;;;;;8382301;28;19913;-66
2021/10/11 19:38:43;;;;;;;;;;;9.10;99.90;;;;;;8377617;28;20387;-66
2021/10/11 19:42:43;;;;;;;;;;;9.00;99.90;;;;;;8386461;28;19920;-66
2021/10/11 19:46:44;;;;;;;;;;;9.10;99.90;;;;;;8376629;28;19923;-66
2021/10/11 19:50:44;;;;;;;;;;;9.20;99.90;;;;;;8364209;28;19920;-66
2021/10/11 19:54:45;;;;;;;;;;;9.50;99.90;;;;;;8368278;28;19927;-66
2021/10/11 19:58:46;;;;;;;;;;;9.60;99.90;;;;;;8369081;28;19942;-66
2021/10/11 20:02:46;;;;;;;;;;;9.60;99.90;;;;;;8379083;28;19919;-66
2021/10/11 20:06:48;;;;;;;;;;;9.40;99.90;;;;;;8379341;28;19912;-66
2021/10/11 20:10:49;;;;;;;;;;;9.30;99.90;;;;;;8377466;28;19909;-66
2021/10/11 20:14:50;;;;;;;;;;;9.20;99.90;;;;;;8368734;28;19920;-66
2021/10/11 20:18:50;;;;;;;;;;;9.30;99.90;;;;;;8361066;28;19917;-66
2021/10/11 20:22:50;;;;;;;;;;;9.40;99.90;;;;;;8359831;28;20004;-66
2021/10/11 20:26:51;;;;;;;;;;;9.60;99.90;;;;;;8360760;28;20375;-66
2021/10/11 20:30:53;;;;;;;;;;;9.40;99.90;;;;;;8360874;28;20035;-66
2021/10/11 20:34:54;;;;;;;;;;;9.40;99.90;;;;;;8358903;28;19920;-66
2021/10/11 20:38:55;;;;;;;;;;;9.40;99.90;;;;;;8385760;28;20406;-66
2021/10/11 20:42:55;;;;;;;;;;;9.30;99.90;;;;;;8365114;28;19959;-66
2021/10/11 20:46:56;;;;;;;;;;;9.40;99.90;;;;;;8390134;28;19966;-66
2021/10/11 20:50:56;;;;;;;;;;;9.50;99.90;;;;;;8392569;28;19982;-66
2021/10/11 20:54:57;;;;;;;;;;;9.40;99.90;;;;;;8392141;28;20298;-66
2021/10/11 20:58:57;;;;;;;;;;;9.40;99.90;;;;;;8391035;28;20366;-66
2021/10/11 21:02:58;;;;;;;;;;;9.40;99.90;;;;;;8392238;28;19908;-66
2021/10/11 21:06:58;;;;;;;;;;;9.40;99.90;;;;;;8392715;28;20007;-66
2021/10/11 21:10:59;;;;;;;;;;;9.60;99.90;;;;;;8392878;28;19912;-66
2021/10/11 21:14:59;;;;;;;;;;;9.70;99.90;;;;;;8390669;28;19916;-66
2021/10/11 21:19:01;;;;;;;;;;;9.50;99.90;;;;;;8392414;28;19924;-66
2021/10/11 21:23:02;;;;;;;;;;;9.30;99.90;;;;;;8391565;28;19924;-66
2021/10/11 21:27:03;;;;;;;;;;;9.20;99.90;;;;;;8392566;28;20369;-66
2021/10/11 21:31:04;;;;;;;;;;;9.40;99.90;;;;;;8391111;28;19919;-66
2021/10/11 21:35:04;;;;;;;;;;;9.50;99.90;;;;;;8391727;28;19944;-66
2021/10/11 21:39:05;;;;;;;;;;;9.30;99.90;;;;;;8391158;28;19978;-66
2021/10/11 21:43:08;;;;;;;;;;;9.50;99.90;;;;;;8392886;28;19935;-66
2021/10/11 21:47:08;;;;;;;;;;;9.60;99.90;;;;;;8391933;28;19915;-66
2021/10/11 21:51:09;;;;;;;;;;;9.30;99.90;;;;;;8392261;28;19913;-66
2021/10/11 21:55:09;;;;;;;;;;;9.10;99.90;;;;;;8391778;28;19995;-66
2021/10/11 21:59:10;;;;;;;;;;;9.00;99.90;;;;;;8391861;28;19943;-66
2021/10/11 22:03:10;;;;;;;;;;;9.00;99.90;;;;;;8392071;28;20007;-66
2021/10/11 22:07:11;;;;;;;;;;;9.10;99.90;;;;;;8391668;28;19909;-66
2021/10/11 22:11:11;;;;;;;;;;;9.00;99.90;;;;;;8391821;28;19916;-66
2021/10/11 22:15:11;;;;;;;;;;;9.00;99.90;;;;;;8389612;28;19916;-66
2021/10/11 22:19:12;;;;;;;;;;;8.90;99.90;;;;;;8391264;28;19920;-66
2021/10/11 22:23:13;;;;;;;;;;;8.80;99.90;;;;;;8391488;28;20022;-66
2021/10/11 22:27:16;;;;;;;;;;;8.70;99.90;;;;;;8382224;28;19916;-66
2021/10/11 22:31:17;;;;;;;;;;;8.80;99.90;;;;;;8380581;28;19994;-66
2021/10/11 22:35:17;;;;;;;;;;;8.90;99.90;;;;;;8353134;28;19913;-66
2021/10/11 22:39:18;;;;;;;;;;;9.30;99.90;;;;;;8354601;28;19913;-66
2021/10/11 22:43:18;;;;;;;;;;;9.30;99.90;;;;;;8353225;28;19916;-66
2021/10/11 22:47:19;;;;;;;;;;;9.40;99.90;;;;;;8362422;28;20006;-66
2021/10/11 22:51:22;;;;;;;;;;;9.40;99.90;;;;;;8393072;28;19920;-66
2021/10/11 22:55:24;;;;;;;;;;;9.00;99.90;;;;;;8392911;28;19916;-66
2021/10/11 22:59:25;;;;;;;;;;;8.90;99.90;;;;;;8391962;28;19923;-66
2021/10/11 23:03:25;;;;;;;;;;;9.00;99.90;;;;;;8393193;28;19930;-66
2021/10/11 23:07:26;;;;;;;;;;;8.90;99.90;;;;;;8391506;28;20003;-67
2021/10/11 23:11:26;;;;;;;;;;;8.80;99.90;;;;;;8393619;28;19919;-66
2021/10/11 23:15:27;;;;;;;;;;;8.80;99.90;;;;;;8392003;28;19918;-66
2021/10/11 23:19:27;;;;;;;;;;;9.00;99.90;;;;;;8392777;28;19916;-66
2021/10/11 23:23:28;;;;;;;;;;;9.00;99.90;;;;;;8363087;28;19963;-66
2021/10/11 23:27:28;;;;;;;;;;;9.10;99.90;;;;;;8358726;28;19962;-66
2021/10/11 23:31:29;;;;;;;;;;;9.00;99.90;;;;;;8359192;28;19912;-66
2021/10/11 23:35:29;;;;;;;;;;;8.80;99.90;;;;;;8358666;28;19913;-66
2021/10/11 23:39:30;;;;;;;;;;;9.00;99.90;;;;;;8358463;28;19917;-65
2021/10/11 23:43:31;;;;;;;;;;;;;;;;;;8357647;28;19959;-66
2021/10/11 23:47:32;;;;;;;;;;;;;;;;;;8358764;28;19960;-66
2021/10/11 23:51:33;;;;;;;;;;;;;;;;;;8358247;28;19918;-66
2021/10/11 23:55:34;;;;;;;;;;;;;;;;;;8357551;28;19916;-66
2021/10/11 23:59:35;;;;;;;;;;;;;;;;;;8356723;28;20338;-66
